Terminal Aerodrome Forecast
Issued by NWS

Home | Current Version | Previous Version | Text Only | Print | Product List | Glossary On
Versions: 1 2 3 4 5 6 7 8 9 10 11 12 13 14 15 16 17
000
FTUS43 KDVN 032348
TAFCID
TAF
KCID 032348Z 0400/0424 20012KT P6SM FEW050 SCT200
     FM040430 20007KT 6SM -RA BR VCTS SCT050 BKN070CB
      TEMPO 0405/0408 2SM TSRA BR OVC020CB
     FM040800 32007KT P6SM VCSH SCT040 BKN090
     FM041400 02009KT P6SM SCT250=

USA.gov is the U.S. government's official web portal to all federal, state and local government web resources and services.